createdAt,value
2023-10-09T00:03:43.793Z,17.90
2023-10-09T00:08:52.122Z,17.80
2023-10-09T00:13:58.569Z,17.80
2023-10-09T00:19:14.621Z,17.80
2023-10-09T00:24:25.329Z,17.90
2023-10-09T00:29:36.103Z,17.90
2023-10-09T00:34:41.687Z,17.90
2023-10-09T00:39:45.460Z,17.90
2023-10-09T00:44:52.172Z,17.90
2023-10-09T00:50:02.313Z,17.90
2023-10-09T00:55:14.821Z,17.90
2023-10-09T01:00:33.817Z,17.80
2023-10-09T01:05:37.779Z,17.80
2023-10-09T01:10:52.148Z,17.70
2023-10-09T01:15:59.741Z,17.70
2023-10-09T01:21:03.860Z,17.60
2023-10-09T01:26:08.376Z,17.50
2023-10-09T01:31:11.653Z,17.40
2023-10-09T01:36:16.750Z,17.30
2023-10-09T01:41:24.713Z,17.20
2023-10-09T01:46:27.829Z,17.10
2023-10-09T01:51:34.624Z,17.10
2023-10-09T01:56:43.019Z,17.10
2023-10-09T02:01:49.096Z,17.00
2023-10-09T02:06:53.804Z,17.00
2023-10-09T02:11:58.376Z,17.00
2023-10-09T02:17:04.762Z,16.90
2023-10-09T02:22:13.792Z,16.90
2023-10-09T02:27:41.187Z,16.90
2023-10-09T02:32:45.673Z,16.90
2023-10-09T02:37:48.935Z,16.80
2023-10-09T02:42:54.053Z,16.80
2023-10-09T02:47:57.522Z,16.80
2023-10-09T02:53:09.703Z,16.80
2023-10-09T02:58:22.144Z,16.80
2023-10-09T03:03:26.507Z,16.80
2023-10-09T03:08:30.425Z,16.80
2023-10-09T03:13:35.322Z,16.80
2023-10-09T03:18:38.619Z,16.80
2023-10-09T03:23:41.751Z,16.80
2023-10-09T03:28:46.284Z,16.80
2023-10-09T03:33:49.501Z,16.70
2023-10-09T03:38:55.870Z,16.60
2023-10-09T03:44:00.654Z,16.50
2023-10-09T03:49:11.655Z,16.50
2023-10-09T03:54:15.201Z,16.50
2023-10-09T03:59:21.093Z,16.40
2023-10-09T04:04:25.105Z,16.40
2023-10-09T04:09:41.109Z,16.40
2023-10-09T04:14:51.520Z,16.30
2023-10-09T04:20:21.551Z,16.30
2023-10-09T04:25:28.018Z,16.20
2023-10-09T04:30:41.632Z,16.20
2023-10-09T04:36:05.363Z,16.10
2023-10-09T04:41:10.242Z,16.10
2023-10-09T04:46:24.519Z,16.10
2023-10-09T04:51:37.453Z,16.00
2023-10-09T04:56:53.211Z,16.00
2023-10-09T05:02:00.540Z,16.00
2023-10-09T05:07:23.806Z,15.90
2023-10-09T05:12:30.181Z,15.90
2023-10-09T05:17:35.638Z,16.00
2023-10-09T05:22:39.009Z,16.00
2023-10-09T05:27:51.972Z,16.00
2023-10-09T05:33:00.750Z,16.00
2023-10-09T05:38:16.371Z,16.10
2023-10-09T05:43:33.354Z,16.20
2023-10-09T05:48:55.989Z,16.30
2023-10-09T05:59:51.411Z,16.50
2023-10-09T06:04:56.460Z,16.70
2023-10-09T06:10:11.720Z,16.80
2023-10-09T06:15:51.894Z,16.90
2023-10-09T06:21:11.133Z,17.00
2023-10-09T06:26:26.046Z,17.20
2023-10-09T06:31:50.566Z,17.40
2023-10-09T06:36:55.161Z,17.50
2023-10-09T06:42:10.636Z,17.70
2023-10-09T06:47:15.297Z,17.90
2023-10-09T06:52:38.377Z,18.10
2023-10-09T06:57:50.310Z,18.40
2023-10-09T07:02:55.133Z,18.60
2023-10-09T07:08:19.110Z,18.90
2023-10-09T07:13:25.548Z,19.10
2023-10-09T07:18:50.104Z,19.30
2023-10-09T07:23:57.864Z,19.50
2023-10-09T07:29:17.278Z,19.60
2023-10-09T07:34:53.710Z,19.80
2023-10-09T07:39:59.494Z,19.90
2023-10-09T07:45:14.442Z,20.00
2023-10-09T07:50:22.672Z,20.10
2023-10-09T07:55:30.958Z,20.10
2023-10-09T08:01:00.113Z,20.20
2023-10-09T08:06:30.899Z,20.30
2023-10-09T08:11:57.992Z,20.30
2023-10-09T08:17:12.775Z,20.30
2023-10-09T08:22:40.063Z,20.40
2023-10-09T08:27:55.900Z,20.40
2023-10-09T08:38:14.032Z,20.50
2023-10-09T08:43:19.487Z,20.50
2023-10-09T08:48:23.223Z,20.60
2023-10-09T08:53:29.225Z,20.70
2023-10-09T08:58:37.873Z,20.80
2023-10-09T09:03:45.113Z,20.90
2023-10-09T09:08:49.825Z,21.00
2023-10-09T09:14:06.285Z,21.00
2023-10-09T09:19:20.027Z,21.10
2023-10-09T09:24:34.453Z,21.20
2023-10-09T09:29:53.773Z,21.20
2023-10-09T09:34:57.332Z,21.30
2023-10-09T09:40:16.572Z,21.30
2023-10-09T09:45:24.527Z,21.40
2023-10-09T09:50:30.302Z,21.50
2023-10-09T09:55:37.236Z,21.60
2023-10-09T10:00:44.860Z,21.60
2023-10-09T10:05:50.454Z,21.70
2023-10-09T10:10:58.695Z,21.70
2023-10-09T10:16:15.356Z,21.80
2023-10-09T10:21:30.314Z,21.90
2023-10-09T10:26:36.220Z,22.00
2023-10-09T10:31:56.332Z,22.10
2023-10-09T10:37:02.521Z,22.20
2023-10-09T10:42:10.750Z,22.30
2023-10-09T10:47:26.086Z,22.40
2023-10-09T10:52:43.715Z,22.50
2023-10-09T10:58:11.148Z,22.50
2023-10-09T11:03:30.700Z,22.60
2023-10-09T11:08:34.605Z,22.70
2023-10-09T11:13:53.738Z,22.70
2023-10-09T11:18:58.687Z,22.80
2023-10-09T11:24:23.364Z,22.70
2023-10-09T11:29:53.659Z,22.90
2023-10-09T11:35:13.057Z,22.90
2023-10-09T11:40:49.236Z,23.00
2023-10-09T11:45:57.933Z,23.20
2023-10-09T11:51:15.814Z,23.20
2023-10-09T11:56:21.049Z,23.20
2023-10-09T12:01:27.683Z,23.20
2023-10-09T12:06:33.613Z,23.20
2023-10-09T12:11:40.879Z,23.20
2023-10-09T12:16:51.327Z,23.20
2023-10-09T12:21:55.246Z,23.10
2023-10-09T12:26:58.711Z,23.10
2023-10-09T12:32:04.657Z,23.00
2023-10-09T12:37:08.080Z,23.00
2023-10-09T12:42:13.218Z,23.00
2023-10-09T12:47:20.652Z,22.80
2023-10-09T12:52:31.302Z,22.70
2023-10-09T12:57:34.669Z,22.60
2023-10-09T13:02:44.793Z,22.50
2023-10-09T13:07:48.057Z,22.50
2023-10-09T13:12:56.881Z,22.50
2023-10-09T13:18:01.522Z,22.50
2023-10-09T13:23:05.901Z,22.60
2023-10-09T13:28:09.301Z,22.60
2023-10-09T13:33:18.384Z,22.70
2023-10-09T13:38:22.416Z,22.70
2023-10-09T13:43:27.071Z,22.60
2023-10-09T13:48:39.045Z,22.60
2023-10-09T13:53:47.003Z,22.60
2023-10-09T13:58:51.968Z,22.60
2023-10-09T14:03:59.957Z,22.60
2023-10-09T14:09:06.410Z,22.70
2023-10-09T14:14:12.479Z,22.80
2023-10-09T14:19:22.192Z,22.80
2023-10-09T14:24:34.206Z,22.80
2023-10-09T14:29:38.970Z,22.80
2023-10-09T14:34:48.224Z,22.80
2023-10-09T14:39:51.446Z,22.80
2023-10-09T14:44:57.041Z,22.80
2023-10-09T14:50:02.992Z,22.80
2023-10-09T14:55:07.139Z,22.80
2023-10-09T15:00:16.932Z,22.80
2023-10-09T15:05:24.154Z,22.80
2023-10-09T15:10:30.920Z,22.80
2023-10-09T15:15:34.323Z,22.80
2023-10-09T15:20:39.352Z,22.80
2023-10-09T15:25:46.328Z,22.80
2023-10-09T15:30:50.610Z,22.90
2023-10-09T15:35:55.568Z,22.90
2023-10-09T15:41:01.603Z,22.90
2023-10-09T15:46:05.752Z,22.90
2023-10-09T15:51:15.379Z,22.90
2023-10-09T15:56:19.523Z,22.90
2023-10-09T16:01:23.507Z,22.90
2023-10-09T16:06:32.634Z,22.90
2023-10-09T16:11:35.931Z,23.00
2023-10-09T16:16:42.737Z,22.90
2023-10-09T16:21:48.050Z,22.90
2023-10-09T16:26:52.537Z,22.80
2023-10-09T16:31:56.630Z,22.70
2023-10-09T16:37:01.414Z,22.70
2023-10-09T16:42:05.950Z,22.60
2023-10-09T16:47:12.568Z,22.70
2023-10-09T16:52:17.255Z,22.70
2023-10-09T16:57:20.387Z,22.80
2023-10-09T17:02:24.588Z,22.80
2023-10-09T17:07:29.460Z,22.90
2023-10-09T17:12:32.559Z,22.90
2023-10-09T17:17:35.769Z,22.90
2023-10-09T17:22:40.663Z,22.90
2023-10-09T17:27:44.094Z,22.90
2023-10-09T17:32:47.742Z,23.00
2023-10-09T17:37:53.127Z,22.90
2023-10-09T17:42:57.140Z,23.00
2023-10-09T17:48:06.637Z,22.90
2023-10-09T17:53:13.176Z,23.00
2023-10-09T17:58:18.099Z,22.90
2023-10-09T18:03:21.384Z,22.90
2023-10-09T18:08:26.948Z,22.90
2023-10-09T18:13:30.340Z,22.90
2023-10-09T18:18:34.370Z,22.90
2023-10-09T18:23:45.510Z,22.80
2023-10-09T18:28:49.586Z,22.70
2023-10-09T18:33:54.398Z,22.60
2023-10-09T18:38:59.318Z,22.60
2023-10-09T18:44:05.742Z,22.50
2023-10-09T18:49:11.360Z,22.40
2023-10-09T18:54:16.049Z,22.40
2023-10-09T18:59:24.394Z,22.40
2023-10-09T19:04:27.825Z,22.40
2023-10-09T19:09:32.532Z,22.40
2023-10-09T19:14:36.429Z,22.40
2023-10-09T19:19:40.229Z,22.40
2023-10-09T19:24:46.644Z,22.30
2023-10-09T19:29:49.742Z,22.30
2023-10-09T19:34:53.024Z,22.30
2023-10-09T19:39:57.576Z,22.20
2023-10-09T19:45:00.961Z,22.00
2023-10-09T19:50:05.326Z,21.90
2023-10-09T19:55:11.380Z,21.80
2023-10-09T20:00:22.504Z,21.80
2023-10-09T20:05:28.634Z,21.80
2023-10-09T20:10:33.398Z,21.70
2023-10-09T20:15:36.621Z,21.50
2023-10-09T20:20:40.401Z,21.50
2023-10-09T20:25:46.965Z,21.50
2023-10-09T20:30:54.009Z,21.40
2023-10-09T20:36:04.240Z,21.40
2023-10-09T20:41:10.355Z,21.30
2023-10-09T20:46:13.850Z,21.20
2023-10-09T20:51:18.013Z,21.20
2023-10-09T20:56:23.430Z,21.20
2023-10-09T21:01:26.570Z,21.20
2023-10-09T21:06:29.726Z,21.10
2023-10-09T21:11:34.833Z,21.10
2023-10-09T21:16:38.073Z,21.10
2023-10-09T21:21:42.493Z,21.10
2023-10-09T21:26:46.963Z,21.10
2023-10-09T21:31:51.191Z,21.10
2023-10-09T21:36:54.347Z,21.00
2023-10-09T21:41:59.406Z,21.00
2023-10-09T21:47:02.597Z,20.90
2023-10-09T21:52:05.712Z,20.80
2023-10-09T21:57:10.549Z,20.70
2023-10-09T22:02:16.454Z,20.60
2023-10-09T22:07:32.341Z,20.50
2023-10-09T22:12:40.313Z,20.50
2023-10-09T22:17:45.635Z,20.40
2023-10-09T22:22:50.294Z,20.30
2023-10-09T22:28:03.249Z,20.20
2023-10-09T22:33:13.371Z,20.10
2023-10-09T22:38:17.453Z,20.00
2023-10-09T22:43:25.336Z,19.90
2023-10-09T22:48:28.844Z,19.80
2023-10-09T22:53:38.973Z,19.70
2023-10-09T22:58:52.218Z,19.50
2023-10-09T23:04:17.569Z,19.50
2023-10-09T23:09:32.092Z,19.40
2023-10-09T23:14:37.295Z,19.40
2023-10-09T23:19:45.397Z,19.50
2023-10-09T23:24:54.112Z,19.40
2023-10-09T23:30:06.751Z,19.40
2023-10-09T23:35:11.089Z,19.40
2023-10-09T23:40:16.422Z,19.40
2023-10-09T23:45:22.130Z,19.40
2023-10-09T23:50:25.436Z,19.40
2023-10-09T23:55:32.704Z,19.30
